createdAt,value
2023-03-12T00:00:11.477Z,1002.70
2023-03-12T00:00:32.511Z,1002.87
2023-03-12T00:00:53.568Z,1002.85
2023-03-12T00:01:14.620Z,1002.81
2023-03-12T00:01:35.685Z,1002.81
2023-03-12T00:01:56.716Z,1002.81
2023-03-12T00:02:17.869Z,1002.81
2023-03-12T00:02:39.044Z,1002.81
2023-03-12T00:03:00.230Z,1002.83
2023-03-12T00:03:21.316Z,1002.81
2023-03-12T00:03:42.424Z,1002.87
2023-03-12T00:04:03.580Z,1002.88
2023-03-12T00:04:24.624Z,1002.83
2023-03-12T00:04:45.713Z,1002.90
2023-03-12T00:05:06.779Z,1002.85
2023-03-12T00:05:27.836Z,1002.90
2023-03-12T00:05:48.888Z,1002.87
2023-03-12T00:06:10.992Z,1002.85
2023-03-12T00:06:32.273Z,1002.87
2023-03-12T00:06:53.338Z,1002.88
2023-03-12T00:07:14.604Z,1002.88
2023-03-12T00:07:35.671Z,1002.88
2023-03-12T00:07:56.752Z,1002.90
2023-03-12T00:08:17.931Z,1002.90
2023-03-12T00:08:39.001Z,1002.90
2023-03-12T00:09:00.103Z,1002.88
2023-03-12T00:09:21.210Z,1002.88
2023-03-12T00:09:42.342Z,1002.88
2023-03-12T00:10:03.394Z,1002.88
2023-03-12T00:10:24.448Z,1002.88
2023-03-12T00:10:45.503Z,1002.87
2023-03-12T00:11:06.631Z,1002.85
2023-03-12T00:11:27.692Z,1002.85
2023-03-12T00:11:48.952Z,1002.87
2023-03-12T00:12:10.109Z,1002.85
2023-03-12T00:12:31.171Z,1002.87
2023-03-12T00:12:52.254Z,1002.87
2023-03-12T00:13:13.323Z,1002.87
2023-03-12T00:13:34.393Z,1002.87
2023-03-12T00:13:55.453Z,1002.87
2023-03-12T00:14:16.628Z,1002.88
2023-03-12T00:14:37.686Z,1002.87
2023-03-12T00:14:59.702Z,1002.88
2023-03-12T00:15:20.874Z,1002.88
2023-03-12T00:15:41.990Z,1002.90
2023-03-12T00:16:03.045Z,1002.90
2023-03-12T00:16:24.177Z,1002.87
2023-03-12T00:16:45.247Z,1002.88
2023-03-12T00:17:06.422Z,1002.88
2023-03-12T00:17:27.499Z,1002.88
2023-03-12T00:17:48.608Z,1002.88
2023-03-12T00:18:09.665Z,1002.88
2023-03-12T00:18:30.836Z,1002.87
2023-03-12T00:18:51.894Z,1002.90
2023-03-12T00:19:13.112Z,1002.87
2023-03-12T00:19:34.181Z,1002.88
2023-03-12T00:19:55.342Z,1002.88
2023-03-12T00:20:16.477Z,1002.87
2023-03-12T00:20:37.521Z,1002.85
2023-03-12T00:20:58.628Z,1002.87
2023-03-12T00:21:19.822Z,1002.88
2023-03-12T00:21:40.893Z,1002.87
2023-03-12T00:22:01.940Z,1002.88
2023-03-12T00:22:23.032Z,1002.88
2023-03-12T00:22:44.074Z,1002.88
2023-03-12T00:23:05.182Z,1002.88
2023-03-12T00:23:26.266Z,1002.88
2023-03-12T00:23:47.397Z,1002.88
2023-03-12T00:24:08.457Z,1002.90
2023-03-12T00:24:29.540Z,1002.90
2023-03-12T00:24:50.612Z,1002.90
2023-03-12T00:25:11.675Z,1002.88
2023-03-12T00:25:32.733Z,1002.88
2023-03-12T00:25:53.808Z,1002.88
2023-03-12T00:26:14.859Z,1002.88
2023-03-12T00:26:35.923Z,1002.87
2023-03-12T00:26:56.998Z,1002.88
2023-03-12T00:27:18.275Z,1002.88
2023-03-12T00:27:39.330Z,1002.87
2023-03-12T00:28:00.452Z,1002.88
2023-03-12T00:28:21.527Z,1002.88
2023-03-12T00:28:42.658Z,1002.88
2023-03-12T00:29:03.754Z,1002.88
2023-03-12T00:29:24.828Z,1002.88
2023-03-12T00:29:45.909Z,1002.88
2023-03-12T00:30:07.071Z,1002.90
2023-03-12T00:30:28.220Z,1002.90
2023-03-12T00:30:49.404Z,1002.88
2023-03-12T00:31:10.517Z,1002.90
2023-03-12T00:31:31.552Z,1002.92
2023-03-12T00:31:52.705Z,1002.92
2023-03-12T00:32:13.825Z,1002.94
2023-03-12T00:32:35.013Z,1002.94
2023-03-12T00:32:56.079Z,1002.92
2023-03-12T00:33:17.182Z,1002.90
2023-03-12T00:33:38.313Z,1002.90
2023-03-12T00:33:59.358Z,1002.90
2023-03-12T00:34:20.517Z,1002.90
2023-03-12T00:34:41.596Z,1002.90
2023-03-12T00:35:02.705Z,1002.92
2023-03-12T00:35:24.003Z,1002.90
2023-03-12T00:35:45.279Z,1002.94
2023-03-12T00:36:06.452Z,1002.96
2023-03-12T00:36:27.481Z,1002.92
2023-03-12T00:36:48.687Z,1002.92
2023-03-12T00:37:09.835Z,1002.96
2023-03-12T00:37:30.903Z,1002.98
2023-03-12T00:37:51.966Z,1002.94
2023-03-12T00:38:13.043Z,1002.94
2023-03-12T00:38:34.105Z,1002.98
2023-03-12T00:38:55.183Z,1002.92
2023-03-12T00:39:16.249Z,1002.96
2023-03-12T00:39:37.487Z,1002.96
2023-03-12T00:39:58.537Z,1002.96
2023-03-12T00:40:19.706Z,1002.94
2023-03-12T00:40:40.762Z,1002.94
2023-03-12T00:41:01.864Z,1002.92
2023-03-12T00:41:22.907Z,1002.92
2023-03-12T00:41:43.953Z,1002.94
2023-03-12T00:42:05.004Z,1002.92
2023-03-12T00:42:26.097Z,1002.90
2023-03-12T00:42:47.150Z,1002.94
2023-03-12T00:43:08.192Z,1002.92
2023-03-12T00:43:29.258Z,1002.90
2023-03-12T00:43:50.424Z,1002.92
2023-03-12T00:44:11.476Z,1002.90
2023-03-12T00:44:32.528Z,1002.92
2023-03-12T00:44:53.763Z,1002.94
2023-03-12T00:45:14.826Z,1002.96
2023-03-12T00:45:35.866Z,1002.96
2023-03-12T00:45:56.933Z,1002.96
2023-03-12T00:46:18.074Z,1002.94
2023-03-12T00:46:39.235Z,1002.96
2023-03-12T00:47:00.374Z,1002.94
2023-03-12T00:47:21.405Z,1002.96
2023-03-12T00:47:42.473Z,1002.94
2023-03-12T00:48:03.543Z,1002.94
2023-03-12T00:48:24.613Z,1002.98
2023-03-12T00:48:45.679Z,1002.94
2023-03-12T00:49:06.800Z,1002.94
2023-03-12T00:49:27.845Z,1002.94
2023-03-12T00:49:48.926Z,1002.94
2023-03-12T00:50:09.991Z,1002.94
2023-03-12T00:50:31.065Z,1002.94
2023-03-12T00:50:52.116Z,1002.94
2023-03-12T00:51:13.179Z,1002.92
2023-03-12T00:51:34.238Z,1002.96
2023-03-12T00:51:55.304Z,1002.94
2023-03-12T00:52:16.358Z,1002.96
2023-03-12T00:52:37.406Z,1002.96
2023-03-12T00:52:58.481Z,1002.96
2023-03-12T00:53:19.552Z,1002.94
2023-03-12T00:53:40.607Z,1002.94
2023-03-12T00:54:01.666Z,1002.94
2023-03-12T00:54:22.722Z,1002.94
2023-03-12T00:54:43.815Z,1002.94
2023-03-12T00:55:04.854Z,1002.94
2023-03-12T00:55:26.082Z,1002.94
2023-03-12T00:55:47.130Z,1002.94
2023-03-12T00:56:08.220Z,1002.96
2023-03-12T00:56:29.256Z,1002.96
2023-03-12T00:56:50.318Z,1002.98
2023-03-12T00:57:11.381Z,1002.94
2023-03-12T00:57:32.445Z,1002.96
2023-03-12T00:57:53.489Z,1002.96
2023-03-12T00:58:14.606Z,1002.94
2023-03-12T00:58:35.640Z,1002.96
2023-03-12T00:58:56.712Z,1002.92
2023-03-12T00:59:17.748Z,1002.94
2023-03-12T00:59:38.828Z,1002.92
2023-03-12T00:59:59.870Z,1002.92
2023-03-12T01:00:20.942Z,1002.94
2023-03-12T01:00:42.051Z,1002.92
2023-03-12T01:01:03.128Z,1002.90
2023-03-12T01:01:24.182Z,1002.92
2023-03-12T01:01:45.225Z,1002.92
2023-03-12T01:02:06.301Z,1002.90
2023-03-12T01:02:27.353Z,1002.92
2023-03-12T01:02:48.408Z,1002.88
2023-03-12T01:03:09.481Z,1002.88
2023-03-12T01:03:30.550Z,1002.88
2023-03-12T01:03:51.715Z,1002.88
2023-03-12T01:04:12.856Z,1002.87
2023-03-12T01:04:33.896Z,1002.92
2023-03-12T01:04:54.951Z,1002.90
2023-03-12T01:05:16.006Z,1002.90
2023-03-12T01:05:37.109Z,1002.90
2023-03-12T01:05:58.198Z,1002.90
2023-03-12T01:06:19.245Z,1002.90
2023-03-12T01:06:40.312Z,1002.90
2023-03-12T01:07:01.403Z,1002.88
2023-03-12T01:07:22.458Z,1002.88
2023-03-12T01:07:43.512Z,1002.90
2023-03-12T01:08:04.564Z,1002.92
2023-03-12T01:08:25.647Z,1002.90
2023-03-12T01:08:46.737Z,1002.87
2023-03-12T01:09:07.831Z,1002.90
2023-03-12T01:09:28.940Z,1002.87
2023-03-12T01:09:49.990Z,1002.88
2023-03-12T01:10:11.073Z,1002.87
2023-03-12T01:10:32.250Z,1002.88
2023-03-12T01:10:53.291Z,1002.88
2023-03-12T01:11:14.375Z,1002.87
2023-03-12T01:11:35.426Z,1002.87
2023-03-12T01:11:56.495Z,1002.85
2023-03-12T01:12:17.573Z,1002.85
2023-03-12T01:12:38.611Z,1002.83
2023-03-12T01:12:59.681Z,1002.85
2023-03-12T01:13:20.766Z,1002.87
2023-03-12T01:13:41.822Z,1002.83
2023-03-12T01:14:02.879Z,1002.81
2023-03-12T01:14:23.921Z,1002.83
2023-03-12T01:14:44.994Z,1002.87
2023-03-12T01:15:06.046Z,1002.87
2023-03-12T01:15:27.158Z,1002.87
2023-03-12T01:15:48.189Z,1002.85
2023-03-12T01:16:09.289Z,1002.81
2023-03-12T01:16:30.582Z,1002.85
2023-03-12T01:16:52.630Z,1002.81
2023-03-12T01:17:13.789Z,1002.81
2023-03-12T01:17:34.861Z,1002.72
2023-03-12T01:17:55.891Z,1002.70
2023-03-12T01:18:16.947Z,1002.72
2023-03-12T01:18:38.058Z,1002.72
2023-03-12T01:18:59.207Z,1002.70
2023-03-12T01:19:20.285Z,1002.70
2023-03-12T01:19:41.335Z,1002.70
2023-03-12T01:20:02.393Z,1002.70
2023-03-12T01:20:23.455Z,1002.70
2023-03-12T01:20:44.710Z,1002.70
2023-03-12T01:21:05.765Z,1002.70
2023-03-12T01:21:26.853Z,1002.72
2023-03-12T01:21:47.921Z,1002.70
2023-03-12T01:22:08.986Z,1002.70
2023-03-12T01:22:30.068Z,1002.70
2023-03-12T01:22:51.115Z,1002.70
2023-03-12T01:23:12.188Z,1002.70
2023-03-12T01:23:33.252Z,1002.70
2023-03-12T01:23:54.334Z,1002.81
2023-03-12T01:24:15.401Z,1002.81
2023-03-12T01:24:36.487Z,1002.81
2023-03-12T01:24:57.557Z,1002.70
2023-03-12T01:25:18.614Z,1002.81
2023-03-12T01:25:39.682Z,1002.81
2023-03-12T01:26:00.728Z,1002.81
2023-03-12T01:26:21.785Z,1002.81
2023-03-12T01:26:42.834Z,1002.81
2023-03-12T01:27:03.909Z,1002.81
2023-03-12T01:27:24.976Z,1002.81
2023-03-12T01:27:46.065Z,1002.81
2023-03-12T01:28:07.096Z,1002.81
2023-03-12T01:28:28.163Z,1002.72
2023-03-12T01:28:49.238Z,1002.85
2023-03-12T01:29:10.317Z,1002.81
2023-03-12T01:29:31.349Z,1002.83
2023-03-12T01:29:52.409Z,1002.83
2023-03-12T01:30:13.476Z,1002.83
2023-03-12T01:30:34.538Z,1002.81
2023-03-12T01:30:55.605Z,1002.81
2023-03-12T01:31:16.712Z,1002.81
2023-03-12T01:31:37.798Z,1002.81
2023-03-12T01:31:58.833Z,1002.81
2023-03-12T01:32:19.978Z,1002.81
2023-03-12T01:32:41.071Z,1002.72
2023-03-12T01:33:02.119Z,1002.81
2023-03-12T01:33:23.210Z,1002.83
2023-03-12T01:33:44.277Z,1002.81
2023-03-12T01:34:05.328Z,1002.81
2023-03-12T01:34:26.403Z,1002.83
2023-03-12T01:34:47.448Z,1002.83
2023-03-12T01:35:08.588Z,1002.83
2023-03-12T01:35:29.728Z,1002.85
2023-03-12T01:35:50.879Z,1002.85
2023-03-12T01:36:12.116Z,1002.87
2023-03-12T01:36:33.193Z,1002.87
2023-03-12T01:36:54.246Z,1002.87
2023-03-12T01:37:15.323Z,1002.87
2023-03-12T01:37:36.441Z,1002.87
2023-03-12T01:37:57.495Z,1002.88
2023-03-12T01:38:18.538Z,1002.88
2023-03-12T01:38:39.619Z,1002.88
2023-03-12T01:39:00.696Z,1002.88
2023-03-12T01:39:21.737Z,1002.85
2023-03-12T01:39:42.930Z,1002.87
2023-03-12T01:40:04.001Z,1002.88
2023-03-12T01:40:25.073Z,1002.88
2023-03-12T01:40:46.151Z,1002.88
2023-03-12T01:41:07.215Z,1002.87
2023-03-12T01:41:28.293Z,1002.87
2023-03-12T01:41:49.343Z,1002.85
2023-03-12T01:42:10.393Z,1002.87
2023-03-12T01:42:31.464Z,1002.88
2023-03-12T01:42:52.547Z,1002.88
2023-03-12T01:43:13.609Z,1002.87
2023-03-12T01:43:34.676Z,1002.90
2023-03-12T01:43:55.737Z,1002.88
2023-03-12T01:44:16.788Z,1002.87
2023-03-12T01:44:37.850Z,1002.88
2023-03-12T01:44:58.959Z,1002.90
2023-03-12T01:45:20.016Z,1002.88
2023-03-12T01:45:41.091Z,1002.88
2023-03-12T01:46:02.184Z,1002.88
2023-03-12T01:46:23.243Z,1002.90
2023-03-12T01:46:44.319Z,1002.90
2023-03-12T01:47:05.449Z,1002.90
2023-03-12T01:47:26.502Z,1002.87
2023-03-12T01:47:47.569Z,1002.88
2023-03-12T01:48:08.624Z,1002.88
2023-03-12T01:48:29.693Z,1002.88
2023-03-12T01:48:50.802Z,1002.87
2023-03-12T01:49:11.865Z,1002.87
2023-03-12T01:49:33.002Z,1002.83
2023-03-12T01:49:54.059Z,1002.83
2023-03-12T01:50:15.182Z,1002.85
2023-03-12T01:50:36.205Z,1002.85
2023-03-12T01:50:57.277Z,1002.85
2023-03-12T01:51:18.355Z,1002.81
2023-03-12T01:51:39.401Z,1002.83
2023-03-12T01:52:00.462Z,1002.85
2023-03-12T01:52:21.524Z,1002.83
2023-03-12T01:52:42.574Z,1002.83
2023-03-12T01:53:03.661Z,1002.85
2023-03-12T01:53:24.777Z,1002.83
2023-03-12T01:53:45.834Z,1002.83
2023-03-12T01:54:06.874Z,1002.81
2023-03-12T01:54:27.935Z,1002.83
2023-03-12T01:54:48.993Z,1002.72
2023-03-12T01:55:10.047Z,1002.83
2023-03-12T01:55:31.114Z,1002.83
2023-03-12T01:55:52.172Z,1002.81
2023-03-12T01:56:13.224Z,1002.83
2023-03-12T01:56:34.279Z,1002.83
2023-03-12T01:56:55.379Z,1002.83
2023-03-12T01:57:16.410Z,1002.81
2023-03-12T01:57:37.482Z,1002.81
2023-03-12T01:57:58.542Z,1002.83
2023-03-12T01:58:19.594Z,1002.72
2023-03-12T01:58:40.705Z,1002.72
2023-03-12T01:59:01.831Z,1002.72
2023-03-12T01:59:22.890Z,1002.72
2023-03-12T01:59:43.944Z,1002.70
2023-03-12T02:00:05.015Z,1002.72
2023-03-12T02:00:26.132Z,1002.70
2023-03-12T02:00:47.197Z,1002.70
2023-03-12T02:01:08.251Z,1002.81
2023-03-12T02:01:29.476Z,1002.68
2023-03-12T02:01:50.525Z,1002.81
2023-03-12T02:02:11.608Z,1002.72
2023-03-12T02:02:32.639Z,1002.72
2023-03-12T02:02:53.714Z,1002.72
2023-03-12T02:03:14.771Z,1002.72
2023-03-12T02:03:35.869Z,1002.70
2023-03-12T02:03:57.520Z,1002.70
2023-03-12T02:04:18.833Z,1002.70
2023-03-12T02:04:39.920Z,1002.66
2023-03-12T02:05:00.962Z,1002.66
2023-03-12T02:05:22.033Z,1002.68
2023-03-12T02:05:43.061Z,1002.64
2023-03-12T02:06:04.235Z,1002.66
2023-03-12T02:06:25.335Z,1002.66
2023-03-12T02:06:46.393Z,1002.64
2023-03-12T02:07:07.450Z,1002.60
2023-03-12T02:07:28.510Z,1002.64
2023-03-12T02:07:49.593Z,1002.62
2023-03-12T02:08:10.647Z,1002.62
2023-03-12T02:08:31.719Z,1002.64
2023-03-12T02:08:52.748Z,1002.62
2023-03-12T02:09:13.863Z,1002.60
2023-03-12T02:09:34.942Z,1002.60
2023-03-12T02:09:55.977Z,1002.60
2023-03-12T02:10:17.042Z,1002.58
2023-03-12T02:10:38.088Z,1002.58
2023-03-12T02:10:59.192Z,1002.58
2023-03-12T02:11:20.233Z,1002.58
2023-03-12T02:11:41.285Z,1002.57
2023-03-12T02:12:02.352Z,1002.58
2023-03-12T02:12:23.428Z,1002.57
2023-03-12T02:12:44.485Z,1002.57
2023-03-12T02:13:05.548Z,1002.55
2023-03-12T02:13:26.588Z,1002.53
2023-03-12T02:13:47.660Z,1002.55
2023-03-12T02:14:08.703Z,1002.53
2023-03-12T02:14:29.797Z,1002.53
2023-03-12T02:14:50.864Z,1002.55
2023-03-12T02:15:11.987Z,1002.55
2023-03-12T02:15:33.035Z,1002.51
2023-03-12T02:15:54.088Z,1002.55
2023-03-12T02:16:15.179Z,1002.53
2023-03-12T02:16:36.305Z,1002.51
2023-03-12T02:16:57.324Z,1002.53
2023-03-12T02:17:18.439Z,1002.51
2023-03-12T02:17:39.503Z,1002.49
2023-03-12T02:18:00.536Z,1002.49
2023-03-12T02:18:21.607Z,1002.47
2023-03-12T02:18:42.650Z,1002.51
2023-03-12T02:19:03.719Z,1002.47
2023-03-12T02:19:24.802Z,1002.45
2023-03-12T02:19:46.033Z,1002.49
2023-03-12T02:20:07.119Z,1002.49
2023-03-12T02:20:28.178Z,1002.45
2023-03-12T02:20:49.253Z,1002.47
2023-03-12T02:21:10.330Z,1002.43
2023-03-12T02:21:31.370Z,1002.47
2023-03-12T02:21:52.426Z,1002.45
2023-03-12T02:22:13.493Z,1002.47
2023-03-12T02:22:34.580Z,1002.45
2023-03-12T02:22:55.635Z,1002.45
2023-03-12T02:23:16.706Z,1002.45
2023-03-12T02:23:37.787Z,1002.47
2023-03-12T02:23:58.865Z,1002.47
2023-03-12T02:24:19.948Z,1002.47
2023-03-12T02:24:40.988Z,1002.47
2023-03-12T02:25:02.060Z,1002.47
2023-03-12T02:25:23.135Z,1002.47
2023-03-12T02:25:44.219Z,1002.47
2023-03-12T02:26:05.273Z,1002.47
2023-03-12T02:26:26.340Z,1002.47
2023-03-12T02:26:47.385Z,1002.45
2023-03-12T02:27:08.454Z,1002.45
2023-03-12T02:27:29.514Z,1002.47
2023-03-12T02:27:50.592Z,1002.47
2023-03-12T02:28:11.635Z,1002.45
2023-03-12T02:28:32.703Z,1002.45
2023-03-12T02:28:53.777Z,1002.43
2023-03-12T02:29:14.814Z,1002.43
2023-03-12T02:29:35.876Z,1002.45
2023-03-12T02:29:56.949Z,1002.43
2023-03-12T02:30:18.058Z,1002.45
2023-03-12T02:30:39.105Z,1002.45
2023-03-12T02:31:00.165Z,1002.47
2023-03-12T02:31:21.310Z,1002.47
2023-03-12T02:31:42.392Z,1002.45
2023-03-12T02:32:03.781Z,1002.43
2023-03-12T02:32:24.857Z,1002.43
2023-03-12T02:32:46.037Z,1002.47
2023-03-12T02:33:07.145Z,1002.41
2023-03-12T02:33:28.211Z,1002.45
2023-03-12T02:33:49.258Z,1002.43
2023-03-12T02:34:10.397Z,1002.45
2023-03-12T02:34:31.411Z,1002.45
2023-03-12T02:34:52.557Z,1002.45
2023-03-12T02:35:13.576Z,1002.45
2023-03-12T02:35:34.682Z,1002.43
2023-03-12T02:35:55.832Z,1002.43
2023-03-12T02:36:16.864Z,1002.43
2023-03-12T02:36:37.956Z,1002.43
2023-03-12T02:36:59.037Z,1002.43
2023-03-12T02:37:20.082Z,1002.43
2023-03-12T02:37:41.130Z,1002.43
2023-03-12T02:38:02.252Z,1002.43
2023-03-12T02:38:23.342Z,1002.43
2023-03-12T02:38:44.429Z,1002.43
2023-03-12T02:39:05.482Z,1002.45
2023-03-12T02:39:26.508Z,1002.47
2023-03-12T02:39:47.560Z,1002.47
2023-03-12T02:40:08.626Z,1002.43
2023-03-12T02:40:29.680Z,1002.47
2023-03-12T02:40:50.900Z,1002.47
2023-03-12T02:41:11.947Z,1002.49
2023-03-12T02:41:33.038Z,1002.49
2023-03-12T02:41:54.075Z,1002.49
2023-03-12T02:42:15.129Z,1002.49
2023-03-12T02:42:36.182Z,1002.49
2023-03-12T02:42:57.240Z,1002.47
2023-03-12T02:43:18.303Z,1002.49
2023-03-12T02:43:39.358Z,1002.49
2023-03-12T02:44:00.467Z,1002.49
2023-03-12T02:44:21.491Z,1002.49
2023-03-12T02:44:42.539Z,1002.49
2023-03-12T02:45:03.615Z,1002.47
2023-03-12T02:45:24.663Z,1002.49
2023-03-12T02:45:45.732Z,1002.47
2023-03-12T02:46:06.861Z,1002.49
2023-03-12T02:46:27.896Z,1002.47
2023-03-12T02:46:48.949Z,1002.43
2023-03-12T02:47:10.036Z,1002.45
2023-03-12T02:47:31.106Z,1002.47
2023-03-12T02:47:52.170Z,1002.47
2023-03-12T02:48:13.201Z,1002.47
2023-03-12T02:48:34.259Z,1002.47
2023-03-12T02:48:55.480Z,1002.49
2023-03-12T02:49:16.564Z,1002.47
2023-03-12T02:49:37.592Z,1002.49
2023-03-12T02:49:58.661Z,1002.49
2023-03-12T02:50:19.722Z,1002.51
2023-03-12T02:50:40.753Z,1002.47
2023-03-12T02:51:01.826Z,1002.49
2023-03-12T02:51:23.040Z,1002.47
2023-03-12T02:51:44.064Z,1002.47
2023-03-12T02:52:05.136Z,1002.47
2023-03-12T02:52:26.195Z,1002.49
2023-03-12T02:52:47.249Z,1002.47
2023-03-12T02:53:08.298Z,1002.47
2023-03-12T02:53:29.368Z,1002.49
2023-03-12T02:53:50.407Z,1002.47
2023-03-12T02:54:11.641Z,1002.45
2023-03-12T02:54:32.703Z,1002.45
2023-03-12T02:54:53.770Z,1002.45
2023-03-12T02:55:14.960Z,1002.43
2023-03-12T02:55:36.086Z,1002.43
2023-03-12T02:55:57.121Z,1002.47
2023-03-12T02:56:18.168Z,1002.43
2023-03-12T02:56:39.241Z,1002.43
2023-03-12T02:57:00.329Z,1002.43
2023-03-12T02:57:21.369Z,1002.41
2023-03-12T02:57:42.421Z,1002.43
2023-03-12T02:58:03.506Z,1002.43
2023-03-12T02:58:24.546Z,1002.43
2023-03-12T02:58:45.625Z,1002.43
2023-03-12T02:59:06.715Z,1002.43
2023-03-12T02:59:27.795Z,1002.41
2023-03-12T02:59:48.844Z,1002.45
2023-03-12T03:00:09.924Z,1002.43
2023-03-12T03:00:30.978Z,1002.45
2023-03-12T03:00:52.041Z,1002.43
2023-03-12T03:01:13.182Z,1002.43
2023-03-12T03:01:34.409Z,1002.45
2023-03-12T03:01:55.540Z,1002.45
2023-03-12T03:02:16.591Z,1002.43
2023-03-12T03:02:37.659Z,1002.43
2023-03-12T03:02:58.720Z,1002.41
2023-03-12T03:03:19.784Z,1002.41
2023-03-12T03:03:40.837Z,1002.41
2023-03-12T03:04:01.941Z,1002.43
2023-03-12T03:04:22.998Z,1002.41
2023-03-12T03:04:44.080Z,1002.41
2023-03-12T03:05:05.134Z,1002.39
2023-03-12T03:05:26.188Z,1002.37
2023-03-12T03:05:47.222Z,1002.39
2023-03-12T03:06:08.307Z,1002.39
2023-03-12T03:06:29.353Z,1002.37
2023-03-12T03:06:50.414Z,1002.37
2023-03-12T03:07:11.512Z,1002.39
2023-03-12T03:07:32.583Z,1002.37
2023-03-12T03:07:53.631Z,1002.37
2023-03-12T03:08:14.692Z,1002.37
2023-03-12T03:08:35.781Z,1002.35
2023-03-12T03:08:56.816Z,1002.35
2023-03-12T03:09:17.902Z,1002.35
2023-03-12T03:09:38.932Z,1002.33
2023-03-12T03:09:59.995Z,1002.35
2023-03-12T03:10:21.054Z,1002.35
2023-03-12T03:10:42.146Z,1002.33
2023-03-12T03:11:03.298Z,1002.35
2023-03-12T03:11:24.352Z,1002.33
2023-03-12T03:11:45.428Z,1002.33
2023-03-12T03:12:06.490Z,1002.31
2023-03-12T03:12:27.585Z,1002.29
2023-03-12T03:12:48.672Z,1002.31
2023-03-12T03:13:09.708Z,1002.31
2023-03-12T03:13:30.759Z,1002.31
2023-03-12T03:13:51.855Z,1002.31
2023-03-12T03:14:12.905Z,1002.31
2023-03-12T03:14:33.947Z,1002.31
2023-03-12T03:14:55.017Z,1002.31
2023-03-12T03:15:16.102Z,1002.31
2023-03-12T03:15:37.202Z,1002.29
2023-03-12T03:15:58.330Z,1002.29
2023-03-12T03:16:19.382Z,1002.29
2023-03-12T03:16:40.457Z,1002.29
2023-03-12T03:17:01.524Z,1002.31
2023-03-12T03:17:22.635Z,1002.29
2023-03-12T03:17:43.744Z,1002.27
2023-03-12T03:18:04.808Z,1002.29
2023-03-12T03:18:25.865Z,1002.27
2023-03-12T03:18:46.949Z,1002.27
2023-03-12T03:19:07.972Z,1002.27
2023-03-12T03:19:29.043Z,1002.27
2023-03-12T03:19:50.086Z,1002.25
2023-03-12T03:20:11.184Z,1002.27
2023-03-12T03:20:32.259Z,1002.27
2023-03-12T03:20:53.280Z,1002.27
2023-03-12T03:21:14.358Z,1002.25
2023-03-12T03:21:35.439Z,1002.25
2023-03-12T03:21:56.482Z,1002.23
2023-03-12T03:22:17.577Z,1002.23
2023-03-12T03:22:38.617Z,1002.25
2023-03-12T03:22:59.701Z,1002.21
2023-03-12T03:23:20.758Z,1002.23
2023-03-12T03:23:41.788Z,1002.23
2023-03-12T03:24:02.849Z,1002.25
2023-03-12T03:24:23.915Z,1002.23
2023-03-12T03:24:44.989Z,1002.23
2023-03-12T03:25:06.042Z,1002.25
2023-03-12T03:25:27.131Z,1002.25
2023-03-12T03:25:48.181Z,1002.25
2023-03-12T03:26:09.275Z,1002.25
2023-03-12T03:26:30.317Z,1002.25
2023-03-12T03:26:51.394Z,1002.25
2023-03-12T03:27:12.449Z,1002.23
2023-03-12T03:27:33.517Z,1002.25
2023-03-12T03:27:54.584Z,1002.23
2023-03-12T03:28:15.680Z,1002.25
2023-03-12T03:28:36.740Z,1002.23
2023-03-12T03:28:57.801Z,1002.23
2023-03-12T03:29:18.862Z,1002.23
2023-03-12T03:29:39.914Z,1002.25
2023-03-12T03:30:01.140Z,1002.25
2023-03-12T03:30:22.207Z,1002.23
2023-03-12T03:30:43.269Z,1002.25
2023-03-12T03:31:04.430Z,1002.23
2023-03-12T03:31:25.533Z,1002.23
2023-03-12T03:31:46.571Z,1002.23
2023-03-12T03:32:07.649Z,1002.23
2023-03-12T03:32:28.751Z,1002.23
2023-03-12T03:32:49.865Z,1002.23
2023-03-12T03:33:10.932Z,1002.19
2023-03-12T03:33:31.996Z,1002.19
2023-03-12T03:33:53.067Z,1002.19
2023-03-12T03:34:14.133Z,1002.19
2023-03-12T03:34:35.161Z,1002.19
2023-03-12T03:34:56.236Z,1002.21
2023-03-12T03:35:17.298Z,1002.15
2023-03-12T03:35:38.378Z,1002.19
2023-03-12T03:35:59.530Z,1002.19
2023-03-12T03:36:20.577Z,1002.15
2023-03-12T03:36:41.654Z,1002.19
2023-03-12T03:37:02.778Z,1002.15
2023-03-12T03:37:23.817Z,1002.15
2023-03-12T03:37:44.871Z,1002.13
2023-03-12T03:38:05.936Z,1002.15
2023-03-12T03:38:27.030Z,1002.17
2023-03-12T03:38:48.088Z,1002.15
2023-03-12T03:39:09.165Z,1002.15
2023-03-12T03:39:30.220Z,1002.15
2023-03-12T03:39:51.282Z,1002.13
2023-03-12T03:40:12.478Z,1002.15
2023-03-12T03:40:33.524Z,1002.17
2023-03-12T03:40:54.585Z,1002.17
2023-03-12T03:41:15.664Z,1002.15
2023-03-12T03:41:36.696Z,1002.17
2023-03-12T03:41:57.781Z,1002.17
2023-03-12T03:42:18.805Z,1002.17
2023-03-12T03:42:39.873Z,1002.11
2023-03-12T03:43:00.929Z,1002.17
2023-03-12T03:43:21.976Z,1002.13
2023-03-12T03:43:43.032Z,1002.15
2023-03-12T03:44:04.134Z,1002.13
2023-03-12T03:44:25.189Z,1002.13
2023-03-12T03:44:46.268Z,1002.15
2023-03-12T03:45:07.358Z,1002.13
2023-03-12T03:45:28.446Z,1002.15
2023-03-12T03:45:49.572Z,1002.13
2023-03-12T03:46:10.674Z,1002.13
2023-03-12T03:46:31.807Z,1002.13
2023-03-12T03:46:52.909Z,1002.13
2023-03-12T03:47:13.987Z,1002.15
2023-03-12T03:47:35.051Z,1002.13
2023-03-12T03:47:56.123Z,1002.13
2023-03-12T03:48:17.180Z,1002.15
2023-03-12T03:48:38.260Z,1002.13
2023-03-12T03:48:59.297Z,1002.13
2023-03-12T03:49:20.388Z,1002.13
2023-03-12T03:49:41.445Z,1002.13
2023-03-12T03:50:02.534Z,1002.13
2023-03-12T03:50:23.632Z,1002.17
2023-03-12T03:50:44.649Z,1002.11
2023-03-12T03:51:05.705Z,1002.15
2023-03-12T03:51:26.804Z,1002.15
2023-03-12T03:51:47.838Z,1002.13
2023-03-12T03:52:08.910Z,1002.13
2023-03-12T03:52:29.964Z,1002.13
2023-03-12T03:52:51.017Z,1002.13
2023-03-12T03:53:12.086Z,1002.13
2023-03-12T03:53:33.153Z,1002.13
2023-03-12T03:53:54.232Z,1002.11
2023-03-12T03:54:15.342Z,1002.15
2023-03-12T03:54:36.395Z,1002.13
2023-03-12T03:54:57.461Z,1002.13
2023-03-12T03:55:18.541Z,1002.13
2023-03-12T03:55:39.680Z,1002.13
2023-03-12T03:56:00.722Z,1002.11
2023-03-12T03:56:21.750Z,1002.11
2023-03-12T03:56:42.850Z,1002.17
2023-03-12T03:57:03.921Z,1002.13
2023-03-12T03:57:25.008Z,1002.13
2023-03-12T03:57:46.038Z,1002.13
2023-03-12T03:58:07.087Z,1002.13
2023-03-12T03:58:28.164Z,1002.13
2023-03-12T03:58:49.206Z,1002.15
2023-03-12T03:59:10.278Z,1002.17
2023-03-12T03:59:31.378Z,1002.17
2023-03-12T03:59:52.429Z,1002.15
2023-03-12T04:00:13.483Z,1002.15
2023-03-12T04:00:34.570Z,1002.15
2023-03-12T04:00:55.609Z,1002.15
2023-03-12T04:01:16.650Z,1002.13
2023-03-12T04:01:37.705Z,1002.15
2023-03-12T04:01:58.764Z,1002.15
2023-03-12T04:02:19.832Z,1002.15
2023-03-12T04:02:40.894Z,1002.13
2023-03-12T04:03:01.960Z,1002.15
2023-03-12T04:03:23.053Z,1002.15
2023-03-12T04:03:44.149Z,1002.15
2023-03-12T04:04:05.178Z,1002.15
2023-03-12T04:04:26.222Z,1002.13
2023-03-12T04:04:47.444Z,1002.13
2023-03-12T04:05:08.527Z,1002.15
2023-03-12T04:05:29.648Z,1002.15
2023-03-12T04:05:50.741Z,1002.15
2023-03-12T04:06:11.783Z,1002.17
2023-03-12T04:06:32.857Z,1002.15
2023-03-12T04:06:53.928Z,1002.15
2023-03-12T04:07:15.016Z,1002.13
2023-03-12T04:07:36.098Z,1002.15
2023-03-12T04:07:57.150Z,1002.17
2023-03-12T04:08:18.219Z,1002.17
2023-03-12T04:08:39.296Z,1002.17
2023-03-12T04:09:00.354Z,1002.17
2023-03-12T04:09:21.397Z,1002.15
2023-03-12T04:09:42.458Z,1002.19
2023-03-12T04:10:03.558Z,1002.17
2023-03-12T04:10:24.652Z,1002.21
2023-03-12T04:10:45.710Z,1002.19
2023-03-12T04:11:06.800Z,1002.21
2023-03-12T04:11:27.872Z,1002.21
2023-03-12T04:11:48.914Z,1002.19
2023-03-12T04:12:09.978Z,1002.17
2023-03-12T04:12:31.056Z,1002.19
2023-03-12T04:12:52.107Z,1002.17
2023-03-12T04:13:13.179Z,1002.17
2023-03-12T04:13:34.241Z,1002.19
2023-03-12T04:13:55.316Z,1002.17
2023-03-12T04:14:16.341Z,1002.15
2023-03-12T04:14:37.406Z,1002.15
2023-03-12T04:14:58.481Z,1002.17